Time;durP1;ratioP1;P1;durP2;ratioP2;P2;SDS_P1;SDS_P2;PMS_P1;PMS_P2;Temp;Humidity;BMP_temperature;BMP_pressure;BME280_temperature;BME280_humidity;BME280_pressure;Samples;Min_cycle;Max_cycle;Signal;HPM_P1;HPM_P2
2022/12/01 00:01:06;;;;;;;96.30;31.45;;;2.60;99.90;;;;;;5088229;28;20158;-48
2022/12/01 00:03:34;;;;;;;90.40;31.42;;;2.60;99.90;;;;;;5081815;28;20032;-46
2022/12/01 00:06:05;;;;;;;;;;;2.60;99.90;;;;;;5087640;28;20040;-47
2022/12/01 00:08:33;;;;;;;91.15;29.55;;;2.60;99.90;;;;;;5089321;28;19924;-47
2022/12/01 00:11:03;;;;;;;96.20;31.30;;;2.60;99.90;;;;;;5078776;28;20044;-46
2022/12/01 00:13:30;;;;;;;98.28;31.95;;;2.60;99.90;;;;;;5091655;28;20528;-47
2022/12/01 00:15:57;;;;;;;102.05;31.85;;;2.60;99.90;;;;;;5091318;28;20547;-47
2022/12/01 00:18:23;;;;;;;95.40;31.67;;;2.60;99.90;;;;;;5085216;28;20063;-46
2022/12/01 00:20:54;;;;;;;100.07;32.22;;;2.60;99.90;;;;;;5079659;28;20129;-46
2022/12/01 00:23:22;;;;;;;94.45;30.15;;;2.60;99.90;;;;;;5090921;28;20040;-49
2022/12/01 00:25:48;;;;;;;;;;;2.60;99.90;;;;;;5092339;28;20482;-46
2022/12/01 00:28:15;;;;;;;93.80;29.75;;;2.60;99.90;;;;;;5079340;28;19963;-47
2022/12/01 00:30:42;;;;;;;98.00;31.50;;;2.60;99.90;;;;;;5091844;28;20165;-48
2022/12/01 00:33:09;;;;;;;68.15;21.27;;;2.60;99.90;;;;;;5088157;28;20118;-49
2022/12/01 00:35:36;;;;;;;91.95;31.15;;;2.60;99.90;;;;;;5080806;28;20036;-46
2022/12/01 00:38:02;;;;;;;88.90;28.60;;;2.60;99.90;;;;;;5091312;28;20101;-47
2022/12/01 00:40:29;;;;;;;97.03;30.63;;;2.60;99.90;;;;;;5090208;28;20071;-46
2022/12/01 00:42:56;;;;;;;76.35;23.83;;;2.60;99.90;;;;;;5077484;28;20489;-47
2022/12/01 00:45:22;;;;;;;96.15;30.13;;;2.70;99.90;;;;;;5086434;28;20090;-47
2022/12/01 00:47:49;;;;;;;94.53;30.65;;;2.70;99.90;;;;;;5085635;28;20066;-47
2022/12/01 00:50:16;;;;;;;100.15;30.80;;;2.70;99.90;;;;;;5083702;28;20067;-47
2022/12/01 00:52:43;;;;;;;103.70;31.30;;;2.70;99.90;;;;;;5090237;28;20462;-46
2022/12/01 00:55:09;;;;;;;75.22;22.83;;;2.60;99.90;;;;;;5091549;28;20043;-46
2022/12/01 00:57:36;;;;;;;104.05;32.50;;;2.60;99.90;;;;;;5089671;28;20109;-47
2022/12/01 01:00:04;;;;;;;110.05;33.85;;;2.50;99.90;;;;;;5082683;28;20554;-46
2022/12/01 01:02:31;;;;;;;107.80;31.45;;;2.50;99.90;;;;;;5090638;28;20483;-46
2022/12/01 01:04:58;;;;;;;71.43;23.25;;;2.50;99.90;;;;;;5085621;28;20443;-46
2022/12/01 01:07:24;;;;;;;85.70;25.33;;;2.40;99.90;;;;;;5078266;28;20060;-46
2022/12/01 01:09:52;;;;;;;99.60;31.38;;;2.40;99.90;;;;;;5091170;28;20564;-46
2022/12/01 01:12:18;;;;;;;87.97;24.35;;;2.50;99.90;;;;;;5086325;28;20078;-46
2022/12/01 01:14:45;;;;;;;106.10;33.38;;;2.50;99.90;;;;;;5089959;28;20503;-46
2022/12/01 01:17:12;;;;;;;110.05;34.00;;;2.50;99.90;;;;;;5082491;28;20036;-46
2022/12/01 01:19:38;;;;;;;75.60;22.55;;;2.50;99.90;;;;;;5082583;28;20041;-46
2022/12/01 01:22:05;;;;;;;105.80;32.50;;;2.50;99.90;;;;;;5086572;28;20489;-46
2022/12/01 01:24:32;;;;;;;113.15;33.35;;;2.40;99.90;;;;;;5083884;28;20071;-46
2022/12/01 01:26:58;;;;;;;101.80;32.60;;;2.40;99.90;;;;;;5085667;28;20040;-47
2022/12/01 01:29:25;;;;;;;103.95;32.55;;;2.40;99.90;;;;;;5091230;28;20101;-48
2022/12/01 01:31:52;;;;;;;104.05;31.83;;;2.40;99.90;;;;;;5076890;28;20558;-46
2022/12/01 01:34:19;;;;;;;113.00;34.25;;;2.40;99.90;;;;;;5070913;28;20072;-46
2022/12/01 01:36:45;;;;;;;111.40;33.17;;;2.40;99.90;;;;;;5070377;28;20080;-46
2022/12/01 01:39:12;;;;;;;94.25;30.65;;;2.40;99.90;;;;;;5071008;28;20044;-46
2022/12/01 01:41:39;;;;;;;84.45;25.05;;;2.40;99.90;;;;;;5081885;28;20537;-48
2022/12/01 01:44:43;;;;;;;110.97;31.70;;;2.40;99.90;;;;;;5091427;28;20051;-46
2022/12/01 01:47:10;;;;;;;100.78;30.92;;;2.40;99.90;;;;;;5093877;28;20040;-46
2022/12/01 01:49:38;;;;;;;99.38;32.08;;;2.40;99.90;;;;;;5086859;28;20036;-46
2022/12/01 01:52:05;;;;;;;102.70;33.60;;;2.40;99.90;;;;;;5074056;28;20049;-47
2022/12/01 01:54:38;;;;;;;81.53;25.80;;;2.40;99.90;;;;;;5074007;28;20467;-46
2022/12/01 01:57:08;;;;;;;102.88;32.00;;;2.40;99.90;;;;;;5074529;28;20048;-46
2022/12/01 01:59:44;;;;;;;100.50;31.40;;;2.40;99.90;;;;;;5074210;28;20455;-47
2022/12/01 02:02:12;;;;;;;109.13;31.25;;;2.40;99.90;;;;;;5074084;28;20071;-46
2022/12/01 02:04:44;;;;;;;110.25;31.75;;;2.50;99.90;;;;;;5073787;28;20047;-46
2022/12/01 02:07:13;;;;;;;104.03;31.17;;;2.50;99.90;;;;;;5073856;28;20105;-46
2022/12/01 02:09:40;;;;;;;119.28;32.95;;;2.50;99.90;;;;;;5074043;28;20086;-47
2022/12/01 02:12:44;;;;;;;99.63;30.10;;;2.50;99.90;;;;;;5072414;28;20094;-46
2022/12/01 02:15:29;;;;;;;100.30;32.40;;;2.50;99.90;;;;;;5074075;28;20053;-46
2022/12/01 02:18:10;;;;;;;115.25;34.50;;;2.50;99.90;;;;;;5082656;28;20040;-48
2022/12/01 02:21:01;;;;;;;115.05;34.67;;;2.40;99.90;;;;;;5074131;28;20083;-46
2022/12/01 02:24:04;;;;;;;132.48;36.15;;;2.40;99.90;;;;;;5073932;28;20048;-46
2022/12/01 02:26:54;;;;;;;117.25;35.20;;;2.40;99.90;;;;;;5075948;28;20064;-46
2022/12/01 02:29:40;;;;;;;119.93;35.60;;;2.40;99.90;;;;;;5074153;28;20512;-48
2022/12/01 02:32:22;;;;;;;128.60;34.53;;;2.30;99.90;;;;;;5073379;28;20478;-46
2022/12/01 02:34:58;;;;;;;130.55;35.95;;;2.40;99.90;;;;;;5073686;28;20052;-46
2022/12/01 02:37:34;;;;;;;124.13;36.45;;;2.40;99.90;;;;;;5081846;28;20048;-46
2022/12/01 02:40:06;;;;;;;125.22;35.70;;;2.30;99.90;;;;;;5088538;28;20040;-47
2022/12/01 02:42:49;;;;;;;125.20;36.00;;;2.30;99.90;;;;;;5093923;28;20043;-46
2022/12/01 02:45:27;;;;;;;132.63;35.38;;;2.40;99.90;;;;;;5088802;28;20519;-46
2022/12/01 02:47:58;;;;;;;121.70;36.15;;;2.30;99.90;;;;;;5082597;28;20109;-46
2022/12/01 02:50:28;;;;;;;121.55;34.85;;;2.30;99.90;;;;;;5072468;28;20068;-46
2022/12/01 02:52:55;;;;;;;126.68;36.38;;;2.30;99.90;;;;;;5072894;28;20106;-46
2022/12/01 02:55:21;;;;;;;120.07;35.75;;;2.30;99.90;;;;;;5073603;28;20047;-48
2022/12/01 02:57:48;;;;;;;95.88;25.88;;;2.30;99.90;;;;;;5081924;28;20131;-46
2022/12/01 03:00:16;;;;;;;133.77;36.47;;;2.20;99.90;;;;;;5090120;28;20393;-46
2022/12/01 03:02:50;;;;;;;114.50;35.45;;;2.20;99.90;;;;;;5093641;28;20108;-46
2022/12/01 03:05:34;;;;;;;136.75;36.15;;;2.20;99.90;;;;;;5078340;28;20072;-46
2022/12/01 03:08:19;;;;;;;134.18;35.80;;;2.20;99.90;;;;;;5073680;28;20036;-46
2022/12/01 03:10:52;;;;;;;132.95;36.17;;;2.20;99.90;;;;;;5072711;28;20040;-46
2022/12/01 03:13:53;;;;;;;133.23;36.95;;;2.20;99.90;;;;;;5073377;28;20094;-46
2022/12/01 03:16:19;;;;;;;124.65;35.60;;;2.20;99.90;;;;;;5081445;28;20097;-46
2022/12/01 03:18:51;;;;;;;141.73;36.33;;;2.20;99.90;;;;;;5072731;28;20044;-47
2022/12/01 03:21:48;;;;;;;141.35;36.22;;;2.20;99.90;;;;;;5073313;28;20529;-47
2022/12/01 03:24:18;;;;;;;142.32;37.50;;;2.20;99.90;;;;;;5073054;28;20068;-46
2022/12/01 03:26:50;;;;;;;137.10;36.05;;;2.20;99.90;;;;;;5085464;28;20442;-46
2022/12/01 03:29:22;;;;;;;133.65;36.15;;;2.20;99.90;;;;;;5092819;28;20149;-47
2022/12/01 03:31:54;;;;;;;118.68;35.15;;;2.10;99.90;;;;;;5090862;28;20044;-46
2022/12/01 03:34:36;;;;;;;137.57;37.72;;;2.10;99.90;;;;;;5085030;28;20549;-46
2022/12/01 03:37:16;;;;;;;139.30;37.60;;;2.10;99.90;;;;;;5093237;28;20503;-47
2022/12/01 03:39:46;;;;;;;149.88;37.47;;;2.10;99.90;;;;;;5093405;28;20104;-47
2022/12/01 03:42:13;;;;;;;148.77;37.03;;;2.10;99.90;;;;;;5079613;28;20036;-47
2022/12/01 03:44:48;;;;;;;138.52;36.45;;;2.10;99.90;;;;;;5072738;28;20463;-47
2022/12/01 03:47:28;;;;;;;137.18;36.20;;;2.10;99.90;;;;;;5073226;28;20508;-46
2022/12/01 03:49:55;;;;;;;153.88;35.65;;;2.10;99.90;;;;;;5078057;28;20036;-47
2022/12/01 03:52:55;;;;;;;156.32;40.15;;;2.00;99.90;;;;;;5092182;28;20097;-46
2022/12/01 03:55:28;;;;;;;149.43;38.80;;;2.00;99.90;;;;;;5085330;28;20558;-46
2022/12/01 03:58:04;;;;;;;139.32;37.25;;;2.00;99.90;;;;;;5058715;28;20105;-47
2022/12/01 04:00:32;;;;;;;147.75;37.00;;;2.00;99.90;;;;;;5071331;28;20049;-47
2022/12/01 04:03:03;;;;;;;133.10;36.35;;;2.00;99.90;;;;;;5071235;28;20110;-46
2022/12/01 04:05:32;;;;;;;149.23;37.10;;;2.00;99.90;;;;;;5072465;28;20037;-46
2022/12/01 04:07:59;;;;;;;141.07;36.53;;;1.90;99.90;;;;;;5072013;28;20102;-46
2022/12/01 04:10:26;;;;;;;;;;;1.90;99.90;;;;;;5081823;28;20040;-46
2022/12/01 04:12:58;;;;;;;133.27;37.88;;;2.00;99.90;;;;;;5092049;28;20391;-46
2022/12/01 04:15:26;;;;;;;147.20;36.65;;;1.90;99.90;;;;;;5079280;28;20041;-46
2022/12/01 04:17:52;;;;;;;127.53;36.88;;;1.90;99.90;;;;;;5072070;28;20070;-47
2022/12/01 04:20:20;;;;;;;145.10;37.15;;;2.00;99.90;;;;;;5071951;28;20068;-46
2022/12/01 04:22:47;;;;;;;;;;;2.00;99.90;;;;;;5071568;28;20109;-47
2022/12/01 04:25:14;;;;;;;137.23;33.78;;;2.00;99.90;;;;;;5084293;28;20384;-46
2022/12/01 04:27:40;;;;;;;131.00;33.33;;;1.90;99.90;;;;;;5091919;28;20039;-46
2022/12/01 04:30:08;;;;;;;144.65;36.97;;;1.90;99.90;;;;;;5092397;28;20408;-46
2022/12/01 04:32:39;;;;;;;163.68;36.05;;;1.90;99.90;;;;;;5089417;28;20040;-47
2022/12/01 04:35:07;;;;;;;167.85;38.38;;;1.90;99.90;;;;;;5076824;28;20052;-46
2022/12/01 04:37:34;;;;;;;148.82;34.80;;;1.90;99.90;;;;;;5090077;22;20052;-48
2022/12/01 04:40:01;;;;;;;137.30;36.20;;;1.90;99.90;;;;;;5095304;28;20118;-48
2022/12/01 04:42:27;;;;;;;133.25;36.67;;;1.90;99.90;;;;;;5094609;28;20488;-48
2022/12/01 04:44:54;;;;;;;99.18;25.92;;;1.90;99.90;;;;;;5091955;28;20082;-47
2022/12/01 04:47:21;;;;;;;93.85;24.90;;;1.90;99.90;;;;;;5088175;28;20076;-53
2022/12/01 04:49:47;;;;;;;139.13;35.83;;;1.90;99.90;;;;;;5071536;28;20091;-49
2022/12/01 04:52:15;;;;;;;139.40;33.90;;;1.90;99.90;;;;;;5079648;28;20036;-49
2022/12/01 04:54:41;;;;;;;124.75;33.10;;;1.90;99.90;;;;;;5091825;28;20078;-50
2022/12/01 04:57:08;;;;;;;103.63;25.92;;;1.90;99.90;;;;;;5090492;28;20122;-53
2022/12/01 04:59:35;;;;;;;162.90;35.33;;;1.90;99.90;;;;;;5075141;28;20501;-53
2022/12/01 05:02:02;;;;;;;96.90;23.73;;;1.80;99.90;;;;;;5071014;28;20485;-48
2022/12/01 05:04:31;;;;;;;136.73;35.40;;;1.80;99.90;;;;;;5071136;28;20451;-52
2022/12/01 05:06:58;;;;;;;138.20;34.40;;;1.90;99.90;;;;;;5076689;28;20097;-52
2022/12/01 05:09:24;;;;;;;151.57;37.08;;;1.90;99.90;;;;;;5083314;28;20497;-52
2022/12/01 05:11:51;;;;;;;100.55;24.83;;;1.90;99.90;;;;;;5091287;28;20048;-49
2022/12/01 05:14:18;;;;;;;132.70;33.17;;;1.80;99.90;;;;;;5084929;28;20117;-51
2022/12/01 05:16:44;;;;;;;135.60;34.88;;;1.80;99.90;;;;;;5079728;28;20481;-51
2022/12/01 05:21:56;;;;;;;155.18;35.03;;;1.80;99.90;;;;;;5071654;28;20459;-53
2022/12/01 05:24:23;;;;;;;129.40;35.10;;;1.80;99.90;;;;;;5070549;28;20064;-53
2022/12/01 05:26:50;;;;;;;153.25;36.63;;;1.80;99.90;;;;;;5083076;28;20048;-50
2022/12/01 05:29:17;;;;;;;134.57;34.17;;;1.80;99.90;;;;;;5085053;28;20097;-51
2022/12/01 05:31:44;;;;;;;125.22;34.58;;;1.80;99.90;;;;;;5070123;28;20067;-52
2022/12/01 05:34:12;;;;;;;134.20;35.60;;;1.80;99.90;;;;;;5052114;28;20715;-48
2022/12/01 05:36:38;;;;;;;130.38;33.67;;;1.90;99.90;;;;;;5074738;28;20094;-50
2022/12/01 05:39:05;;;;;;;136.35;33.67;;;1.80;99.90;;;;;;5070535;28;20048;-50
2022/12/01 05:41:32;;;;;;;118.18;32.63;;;1.80;99.90;;;;;;5086896;28;20508;-51
2022/12/01 05:43:58;;;;;;;129.93;32.80;;;1.80;99.90;;;;;;5089778;28;20109;-49
2022/12/01 05:46:25;;;;;;;125.47;33.90;;;1.90;99.90;;;;;;5090602;28;20063;-52
2022/12/01 05:48:52;;;;;;;119.93;33.95;;;1.90;99.90;;;;;;5080653;28;20040;-50
2022/12/01 05:51:19;;;;;;;137.40;36.28;;;1.90;99.90;;;;;;5087918;28;20471;-50
2022/12/01 05:53:46;;;;;;;140.30;34.80;;;1.90;99.90;;;;;;5076736;28;20097;-49
2022/12/01 05:56:12;;;;;;;130.32;33.00;;;1.90;99.90;;;;;;5080101;28;20040;-51
2022/12/01 05:58:39;;;;;;;113.97;31.67;;;1.90;99.90;;;;;;5090479;28;20069;-52
2022/12/01 06:01:06;;;;;;;116.25;32.13;;;1.90;99.90;;;;;;5084279;28;20552;-50
2022/12/01 06:03:33;;;;;;;128.35;33.38;;;2.00;99.90;;;;;;5070242;28;20087;-51
2022/12/01 06:06:00;;;;;;;124.93;31.73;;;2.00;99.90;;;;;;5077946;28;20443;-52
2022/12/01 06:08:27;;;;;;;116.97;32.45;;;2.00;99.90;;;;;;5088084;28;20036;-49
2022/12/01 06:10:54;;;;;;;93.38;31.30;;;2.00;99.90;;;;;;5086033;28;20048;-49
2022/12/01 06:13:20;;;;;;;124.10;32.65;;;2.00;99.90;;;;;;5084554;28;20442;-48
2022/12/01 06:16:06;;;;;;;80.90;23.73;;;1.90;99.90;;;;;;5082336;28;20045;-49
2022/12/01 06:18:35;;;;;;;117.65;31.13;;;2.00;99.90;;;;;;5087348;28;20045;-49
2022/12/01 06:21:04;;;;;;;120.72;31.83;;;2.00;99.90;;;;;;5090440;28;20060;-48
2022/12/01 06:23:31;;;;;;;110.03;31.50;;;2.00;99.90;;;;;;5076906;28;20040;-51
2022/12/01 06:25:58;;;;;;;111.10;32.92;;;1.90;99.90;;;;;;5070558;28;20067;-50
2022/12/01 06:28:25;;;;;;;110.78;33.67;;;2.00;99.90;;;;;;5070587;28;20462;-50
2022/12/01 06:30:51;;;;;;;110.18;31.77;;;2.00;99.90;;;;;;5069973;28;20485;-50
2022/12/01 06:33:25;;;;;;;116.70;31.77;;;2.00;99.90;;;;;;5072792;28;20517;-50
2022/12/01 06:36:03;;;;;;;76.95;22.17;;;2.00;99.90;;;;;;5073266;28;20075;-48
2022/12/01 06:38:35;;;;;;;124.70;31.75;;;2.00;99.90;;;;;;5075369;28;20064;-50
2022/12/01 06:41:02;;;;;;;109.35;31.10;;;2.00;99.90;;;;;;5086055;28;20101;-50
2022/12/01 06:43:29;;;;;;;116.72;32.60;;;2.00;99.90;;;;;;5093601;28;20036;-51
2022/12/01 06:45:56;;;;;;;127.97;32.63;;;2.00;99.90;;;;;;5090795;28;20090;-50
2022/12/01 06:48:34;;;;;;;111.97;32.72;;;1.90;99.90;;;;;;5084207;28;20044;-49
2022/12/01 06:51:01;;;;;;;120.55;32.45;;;2.00;99.90;;;;;;5080102;28;20124;-48
2022/12/01 06:53:29;;;;;;;131.32;33.50;;;1.90;99.90;;;;;;5075034;28;20045;-49
2022/12/01 06:55:59;;;;;;;125.80;31.48;;;1.90;99.90;;;;;;5072972;28;20512;-52
2022/12/01 06:58:27;;;;;;;126.55;32.92;;;1.90;99.90;;;;;;5073518;28;20044;-50
2022/12/01 07:00:54;;;;;;;122.88;32.97;;;1.90;99.90;;;;;;5073812;28;20048;-53
2022/12/01 07:03:21;;;;;;;117.30;32.17;;;1.90;99.90;;;;;;5072948;28;20079;-49
2022/12/01 07:05:58;;;;;;;123.65;32.80;;;2.00;99.90;;;;;;5077578;28;20060;-50
2022/12/01 07:08:26;;;;;;;118.05;32.45;;;1.90;99.90;;;;;;5085319;28;20047;-49
2022/12/01 07:11:00;;;;;;;121.30;33.45;;;2.00;99.90;;;;;;5083812;28;20072;-49
2022/12/01 07:13:27;;;;;;;125.43;33.80;;;2.00;99.90;;;;;;5072772;28;20492;-51
2022/12/01 07:16:00;;;;;;;127.30;33.45;;;2.00;99.90;;;;;;5078180;28;20072;-49
2022/12/01 07:18:28;;;;;;;133.57;35.42;;;2.00;99.90;;;;;;5073161;28;20098;-49
2022/12/01 07:21:01;;;;;;;;;;;2.00;99.90;;;;;;5075272;28;20072;-51
2022/12/01 07:23:28;;;;;;;126.32;30.95;;;2.10;99.90;;;;;;5072358;28;19939;-49
2022/12/01 07:26:10;;;;;;;89.22;23.23;;;2.10;99.90;;;;;;5071885;28;20134;-49
2022/12/01 07:28:37;;;;;;;122.65;32.65;;;2.10;99.90;;;;;;5075619;28;20112;-50
2022/12/01 07:31:08;;;;;;;112.32;31.63;;;2.10;99.90;;;;;;5079952;28;20098;-50
2022/12/01 07:33:35;;;;;;;101.80;31.52;;;2.10;99.90;;;;;;5072747;28;20122;-49
2022/12/01 07:36:03;;;;;;;112.22;29.80;;;2.10;99.90;;;;;;5072214;28;20072;-52
2022/12/01 07:38:31;;;;;;;104.50;29.63;;;1.50;99.90;;;;;;5072404;28;20421;-49
2022/12/01 07:41:01;;;;;;;113.88;30.73;;;2.10;99.90;;;;;;5086398;28;20071;-51
2022/12/01 07:43:30;;;;;;;103.70;30.33;;;2.10;99.90;;;;;;5073776;28;20447;-51
2022/12/01 07:46:03;;;;;;;97.70;29.55;;;2.10;99.90;;;;;;5072331;28;20079;-50
2022/12/01 07:48:30;;;;;;;113.78;32.17;;;2.10;99.90;;;;;;5074886;28;20127;-50
2022/12/01 07:50:56;;;;;;;75.28;21.88;;;2.10;99.90;;;;;;5085756;28;20101;-49
2022/12/01 07:53:23;;;;;;;86.45;23.85;;;2.20;99.90;;;;;;5089509;28;20036;-47
2022/12/01 07:55:50;;;;;;;80.72;23.75;;;2.10;99.90;;;;;;5080836;28;20094;-52
2022/12/01 07:58:17;;;;;;;75.80;21.60;;;2.20;99.90;;;;;;5074864;28;20087;-51
2022/12/01 08:00:43;;;;;;;102.05;28.33;;;2.20;99.90;;;;;;5083233;28;20064;-50
2022/12/01 08:03:10;;;;;;;98.85;28.42;;;2.30;99.90;;;;;;5088264;28;20089;-52
2022/12/01 08:05:37;;;;;;;105.70;31.00;;;2.30;99.90;;;;;;5084432;28;20115;-48
2022/12/01 08:08:04;;;;;;;104.97;29.73;;;2.30;99.90;;;;;;5072129;28;20079;-50
2022/12/01 08:10:31;;;;;;;109.57;29.00;;;2.30;99.90;;;;;;5075328;28;20032;-52
2022/12/01 08:12:57;;;;;;;85.65;23.17;;;2.30;99.90;;;;;;5087606;28;20523;-51
2022/12/01 08:15:24;;;;;;;112.07;30.65;;;2.30;99.90;;;;;;5083755;28;20066;-51
2022/12/01 08:17:51;;;;;;;99.53;30.67;;;2.30;99.90;;;;;;5092094;28;20119;-47
2022/12/01 08:20:18;;;;;;;83.18;22.80;;;2.40;99.90;;;;;;5090351;28;20047;-50
2022/12/01 08:22:49;;;;;;;124.72;33.10;;;2.40;99.90;;;;;;5071728;28;20115;-48
2022/12/01 08:25:16;;;;;;;102.45;28.80;;;2.40;99.90;;;;;;5073192;28;20037;-47
2022/12/01 08:27:43;;;;;;;107.55;30.17;;;2.40;99.90;;;;;;5092399;28;20221;-47
2022/12/01 08:30:10;;;;;;;76.38;21.38;;;2.40;99.90;;;;;;5087711;28;20067;-51
2022/12/01 08:32:36;;;;;;;106.30;29.73;;;2.40;99.90;;;;;;5080598;28;20117;-50
2022/12/01 08:35:03;;;;;;;73.53;22.58;;;2.40;99.90;;;;;;5091518;28;20113;-47
2022/12/01 08:37:30;;;;;;;104.78;28.92;;;2.40;99.90;;;;;;5091894;28;20036;-48
2022/12/01 08:39:57;;;;;;;82.18;22.40;;;2.50;99.90;;;;;;5080042;28;20102;-52
2022/12/01 08:42:23;;;;;;;101.32;30.88;;;2.50;99.90;;;;;;5073570;28;20106;-51
2022/12/01 08:44:50;;;;;;;109.43;30.00;;;2.50;99.90;;;;;;5071216;28;20071;-47
2022/12/01 08:47:17;;;;;;;108.05;30.40;;;2.50;99.90;;;;;;5071714;28;20400;-52
2022/12/01 08:49:44;;;;;;;103.65;32.25;;;2.40;99.90;;;;;;5091082;28;20040;-49
2022/12/01 08:52:11;;;;;;;104.13;30.48;;;2.70;99.90;;;;;;5091500;28;20047;-51
2022/12/01 08:54:38;;;;;;;74.70;22.58;;;2.70;99.90;;;;;;5087202;28;20109;-52
2022/12/01 08:57:05;;;;;;;79.18;22.60;;;2.70;99.90;;;;;;5083355;28;20040;-48
2022/12/01 08:59:32;;;;;;;98.45;30.25;;;2.70;99.90;;;;;;5091520;28;20040;-48
2022/12/01 09:01:58;;;;;;;61.65;20.50;;;2.80;99.90;;;;;;5075088;28;20040;-49
2022/12/01 09:04:32;;;;;;;91.75;27.83;;;2.80;99.90;;;;;;5070997;28;20041;-50
2022/12/01 09:06:59;;;;;;;93.80;27.55;;;2.90;99.90;;;;;;5071030;28;20040;-51
2022/12/01 09:09:27;;;;;;;96.93;27.85;;;2.90;99.90;;;;;;5053159;28;20071;-49
2022/12/01 09:11:54;;;;;;;90.72;27.08;;;2.90;99.90;;;;;;5070161;28;20074;-49
2022/12/01 09:14:22;;;;;;;90.88;27.52;;;2.90;99.90;;;;;;5070852;28;20040;-49
2022/12/01 09:16:49;;;;;;;;;;;2.90;99.90;;;;;;5079485;28;20040;-49
2022/12/01 09:19:18;;;;;;;82.63;25.00;;;3.00;99.90;;;;;;5087313;28;19990;-51
2022/12/01 09:21:50;;;;;;;86.07;26.00;;;3.00;99.90;;;;;;5091013;28;20079;-49
2022/12/01 09:24:17;;;;;;;89.97;26.92;;;3.10;99.90;;;;;;5075084;28;20040;-49
2022/12/01 09:26:44;;;;;;;86.53;25.95;;;3.10;99.90;;;;;;5070977;28;20562;-51
2022/12/01 09:29:13;;;;;;;74.55;24.88;;;3.10;99.90;;;;;;5070463;28;20040;-49
2022/12/01 09:31:40;;;;;;;82.88;25.90;;;3.10;99.90;;;;;;5081619;28;20089;-49
2022/12/01 09:34:10;;;;;;;;;;;3.20;99.90;;;;;;5083445;28;20068;-50
2022/12/01 09:36:37;;;;;;;77.78;24.27;;;3.10;99.90;;;;;;5091440;28;20417;-49
2022/12/01 09:39:07;;;;;;;77.97;25.65;;;3.10;99.90;;;;;;5088584;28;20071;-49
2022/12/01 09:41:37;;;;;;;84.03;25.67;;;3.10;99.90;;;;;;5080941;28;20086;-51
2022/12/01 09:44:19;;;;;;;77.10;25.05;;;3.10;99.90;;;;;;5074162;28;20048;-52
2022/12/01 09:47:02;;;;;;;80.30;25.73;;;3.20;99.90;;;;;;5086940;28;20502;-50
2022/12/01 09:49:43;;;;;;;78.38;23.42;;;3.20;99.90;;;;;;5089919;28;20101;-49
2022/12/01 09:52:15;;;;;;;74.18;24.77;;;3.20;99.90;;;;;;5086048;28;20094;-49
2022/12/01 09:54:42;;;;;;;77.63;25.50;;;3.30;99.90;;;;;;5082515;28;20494;-50
2022/12/01 09:57:25;;;;;;;66.75;22.75;;;3.30;99.90;;;;;;5091003;28;20044;-52
2022/12/01 09:59:53;;;;;;;79.28;26.23;;;3.30;99.90;;;;;;5084497;28;20453;-50
2022/12/01 10:02:31;;;;;;;74.97;25.10;;;3.30;99.90;;;;;;5069840;28;20087;-49
2022/12/01 10:05:02;;;;;;;77.00;24.30;;;3.30;99.90;;;;;;5070365;28;20073;-49
2022/12/01 10:07:41;;;;;;;82.15;24.85;;;3.40;99.90;;;;;;5080092;28;20035;-51
2022/12/01 10:10:16;;;;;;;70.03;22.73;;;3.40;99.90;;;;;;5089961;28;20121;-49
2022/12/01 10:12:45;;;;;;;84.65;24.85;;;3.40;99.90;;;;;;5093901;28;20032;-53
2022/12/01 10:15:14;;;;;;;66.75;22.17;;;3.40;99.90;;;;;;5084962;28;20102;-49
2022/12/01 10:18:18;;;;;;;71.78;24.27;;;3.40;99.90;;;;;;5074507;28;20101;-49
2022/12/01 10:21:10;;;;;;;77.50;24.92;;;3.40;99.90;;;;;;5084738;28;20385;-49
2022/12/01 10:23:49;;;;;;;77.38;24.63;;;3.50;99.90;;;;;;5084291;28;20105;-51
2022/12/01 10:26:30;;;;;;;81.07;25.15;;;3.60;99.90;;;;;;5090040;28;20071;-49
2022/12/01 10:29:10;;;;;;;79.55;23.85;;;3.60;99.90;;;;;;5094425;28;20093;-49
2022/12/01 10:31:50;;;;;;;80.60;24.52;;;3.60;99.90;;;;;;5087910;28;20086;-50
2022/12/01 10:34:27;;;;;;;66.97;23.30;;;3.60;99.90;;;;;;5081334;28;20037;-49
2022/12/01 10:36:55;;;;;;;73.13;23.57;;;3.70;99.90;;;;;;5075333;28;20036;-51
2022/12/01 10:39:42;;;;;;;71.80;24.85;;;3.70;99.90;;;;;;5093096;28;20071;-52
2022/12/01 10:42:30;;;;;;;70.15;22.88;;;3.70;99.90;;;;;;5086844;28;20116;-50
2022/12/01 10:45:01;;;;;;;56.70;18.00;;;3.60;99.90;;;;;;5073805;28;20079;-49
2022/12/01 10:47:28;;;;;;;69.25;23.42;;;3.60;99.90;;;;;;5103475;22;20048;-48
2022/12/01 10:49:55;;;;;;;82.28;26.10;;;3.70;99.90;;;;;;5101137;28;20075;-46
2022/12/01 10:52:39;;;;;;;71.13;23.63;;;3.70;99.90;;;;;;5093376;28;20085;-50
2022/12/01 10:55:21;;;;;;;75.97;24.05;;;3.70;99.90;;;;;;5093905;28;20105;-48
2022/12/01 10:57:48;;;;;;;78.78;25.10;;;3.70;99.90;;;;;;5105880;28;20043;-50
2022/12/01 11:00:24;;;;;;;70.18;23.70;;;4.40;99.90;;;;;;5095937;28;20047;-49
2022/12/01 11:03:21;;;;;;;73.22;23.38;;;3.80;99.90;;;;;;5113843;28;20135;-48
2022/12/01 11:05:57;;;;;;;76.03;24.63;;;3.80;99.90;;;;;;5114201;28;20554;-47
2022/12/01 11:08:36;;;;;;;71.03;24.58;;;3.70;99.90;;;;;;5105670;28;20048;-49
2022/12/01 11:11:04;;;;;;;74.13;24.70;;;3.80;99.90;;;;;;5107912;28;20044;-48
2022/12/01 11:13:33;;;;;;;;;;;3.80;99.90;;;;;;5093742;28;20067;-46
2022/12/01 11:16:04;;;;;;;76.45;23.88;;;3.80;99.90;;;;;;5108143;28;19955;-48
2022/12/01 11:18:36;;;;;;;77.85;24.98;;;3.90;99.90;;;;;;5111715;28;20418;-48
2022/12/01 11:21:24;;;;;;;75.82;24.13;;;3.80;99.90;;;;;;5111815;28;20063;-47
2022/12/01 11:23:53;;;;;;;70.22;24.77;;;3.90;99.90;;;;;;5110615;28;20112;-48
2022/12/01 11:26:26;;;;;;;73.47;24.35;;;3.90;99.90;;;;;;5111659;28;20070;-47
2022/12/01 11:29:03;;;;;;;73.85;26.10;;;4.00;99.90;;;;;;5092327;28;20553;-47
2022/12/01 11:31:45;;;;;;;72.07;23.67;;;3.90;99.90;;;;;;5092862;28;20462;-48
2022/12/01 11:34:20;;;;;;;70.43;24.23;;;3.90;99.90;;;;;;5112986;28;20043;-47
2022/12/01 11:36:53;;;;;;;67.43;24.05;;;3.90;99.90;;;;;;5112802;28;20572;-48
2022/12/01 11:39:32;;;;;;;67.47;22.85;;;3.90;99.90;;;;;;5112867;28;20512;-48
2022/12/01 11:42:05;;;;;;;63.28;22.92;;;3.90;99.90;;;;;;5107331;28;20048;-48
2022/12/01 11:44:33;;;;;;;63.55;23.02;;;3.80;99.90;;;;;;5093194;28;20093;-47
2022/12/01 11:47:23;;;;;;;63.53;23.95;;;3.80;99.90;;;;;;5094931;28;20040;-47
2022/12/01 11:50:24;;;;;;;68.22;23.65;;;3.80;99.90;;;;;;5106891;28;20036;-48
2022/12/01 11:52:51;;;;;;;59.15;21.13;;;3.70;99.90;;;;;;5103919;28;20071;-48
2022/12/01 11:55:24;;;;;;;67.40;24.42;;;3.80;99.90;;;;;;5113017;28;20055;-47
2022/12/01 11:57:54;;;;;;;69.28;24.08;;;3.80;99.90;;;;;;5113054;28;20035;-48
2022/12/01 12:00:27;;;;;;;68.82;22.73;;;3.80;99.90;;;;;;5112825;28;20048;-48
2022/12/01 12:03:21;;;;;;;74.00;23.90;;;3.90;99.90;;;;;;5097250;28;20043;-48
2022/12/01 12:06:09;;;;;;;61.03;23.17;;;3.90;99.90;;;;;;5107548;28;20031;-49
2022/12/01 12:09:40;;;;;;;62.88;23.38;;;3.90;99.90;;;;;;5105815;28;20054;-47
2022/12/01 12:12:14;;;;;;;64.55;22.40;;;3.90;99.90;;;;;;5102989;28;20078;-47
2022/12/01 12:14:52;;;;;;;69.07;21.27;;;3.90;99.90;;;;;;5104464;28;20040;-49
2022/12/01 12:18:01;;;;;;;69.90;26.52;;;3.90;99.90;;;;;;5108709;28;20071;-51
2022/12/01 12:20:51;;;;;;;62.78;21.83;;;3.90;99.90;;;;;;5081129;28;20052;-48
2022/12/01 12:23:56;;;;;;;60.75;22.40;;;3.90;99.90;;;;;;5095999;28;20551;-49
2022/12/01 12:26:36;;;;;;;63.60;22.52;;;3.90;99.90;;;;;;5109770;28;20036;-47
2022/12/01 12:29:19;;;;;;;64.05;22.60;;;3.90;99.90;;;;;;5111950;28;20104;-47
2022/12/01 12:31:57;;;;;;;72.72;23.60;;;3.90;99.90;;;;;;5111434;28;20044;-48
2022/12/01 12:34:36;;;;;;;;;;;3.90;99.90;;;;;;5112404;28;20123;-48
2022/12/01 12:37:33;;;;;;;65.45;21.60;;;3.90;99.90;;;;;;5111427;28;20455;-47
2022/12/01 12:40:07;;;;;;;69.70;22.95;;;3.80;99.90;;;;;;5112241;28;20078;-48
2022/12/01 12:42:37;;;;;;;68.00;23.13;;;3.80;99.90;;;;;;5111675;28;20036;-49
2022/12/01 12:45:19;;;;;;;67.10;23.65;;;3.80;99.90;;;;;;5110666;28;20469;-48
2022/12/01 12:48:10;;;;;;;66.53;23.67;;;3.80;99.90;;;;;;5103554;28;20730;-49
2022/12/01 12:50:53;;;;;;;67.38;24.05;;;3.10;99.90;;;;;;5112093;28;20462;-48
2022/12/01 12:53:25;;;;;;;71.10;24.35;;;3.90;99.90;;;;;;5111544;28;20097;-47
2022/12/01 12:55:58;;;;;;;72.05;24.45;;;3.90;99.90;;;;;;5106437;28;20047;-47
2022/12/01 12:58:32;;;;;;;58.72;22.42;;;3.90;99.90;;;;;;5111746;28;20056;-49
2022/12/01 13:01:07;;;;;;;60.05;22.77;;;3.90;99.90;;;;;;5111695;28;20587;-48
2022/12/01 13:03:43;;;;;;;65.75;22.80;;;3.90;99.90;;;;;;5108572;28;20407;-49